createdAt,value
2022-10-23T00:02:05.255Z,376.17
2022-10-23T00:04:53.485Z,351.45
2022-10-23T00:07:41.358Z,376.02
2022-10-23T00:10:29.686Z,368.10
2022-10-23T00:13:17.550Z,363.33
2022-10-23T00:16:08.255Z,380.65
2022-10-23T00:18:56.202Z,371.30
2022-10-23T00:21:44.166Z,365.52
2022-10-23T00:24:32.045Z,361.77
2022-10-23T00:27:20.183Z,344.98
2022-10-23T00:30:09.013Z,352.67
2022-10-23T00:32:58.257Z,352.25
2022-10-23T00:35:46.137Z,380.42
2022-10-23T00:38:34.020Z,358.15
2022-10-23T00:41:24.335Z,367.67
2022-10-23T00:44:50.658Z,350.45
2022-10-23T00:47:40.269Z,341.52
2022-10-23T00:50:30.612Z,344.35
2022-10-23T00:53:21.266Z,357.48
2022-10-23T00:56:09.172Z,343.73
2022-10-23T00:58:57.068Z,340.73
2022-10-23T01:01:45.263Z,352.27
2022-10-23T01:04:35.783Z,330.40
2022-10-23T01:07:30.091Z,350.63
2022-10-23T01:10:25.725Z,345.48
2022-10-23T01:13:21.351Z,354.52
2022-10-23T01:16:15.143Z,355.88
2022-10-23T01:19:13.223Z,369.20
2022-10-23T01:22:12.714Z,361.98
2022-10-23T01:25:08.210Z,361.33
2022-10-23T01:28:02.268Z,337.67
2022-10-23T01:30:50.635Z,370.08
2022-10-23T01:33:43.857Z,384.02
2022-10-23T01:36:34.078Z,369.58
2022-10-23T01:39:27.370Z,368.02
2022-10-23T01:42:20.049Z,368.08
2022-10-23T01:45:14.547Z,372.50
2022-10-23T01:48:07.610Z,351.00
2022-10-23T01:51:01.582Z,355.17
2022-10-23T01:53:53.515Z,367.60
2022-10-23T01:56:46.032Z,333.13
2022-10-23T01:59:39.126Z,335.38
2022-10-23T02:02:32.057Z,365.17
2022-10-23T02:05:24.821Z,357.65
2022-10-23T02:08:13.185Z,343.70
2022-10-23T02:11:08.896Z,342.10
2022-10-23T02:14:02.788Z,358.95
2022-10-23T02:16:53.577Z,375.17
2022-10-23T02:19:48.010Z,352.73
2022-10-23T02:22:42.395Z,352.30
2022-10-23T02:25:34.777Z,346.55
2022-10-23T02:28:27.843Z,333.35
2022-10-23T02:31:23.051Z,358.13
2022-10-23T02:34:11.045Z,336.38
2022-10-23T02:37:00.265Z,346.80
2022-10-23T02:39:49.135Z,353.55
2022-10-23T02:42:44.571Z,338.48
2022-10-23T02:48:42.604Z,359.90
2022-10-23T02:51:38.030Z,352.95
2022-10-23T02:54:44.235Z,355.67
2022-10-23T02:57:35.516Z,335.02
2022-10-23T03:00:24.838Z,336.83
2022-10-23T03:03:15.921Z,361.67
2022-10-23T03:06:04.149Z,360.13
2022-10-23T03:08:55.724Z,350.90
2022-10-23T03:11:47.400Z,345.77
2022-10-23T03:14:35.418Z,347.40
2022-10-23T03:17:25.291Z,344.80
2022-10-23T03:20:16.669Z,335.05
2022-10-23T03:23:05.559Z,335.48
2022-10-23T03:25:54.323Z,343.20
2022-10-23T03:28:54.535Z,323.10
2022-10-23T03:31:43.973Z,338.20
2022-10-23T03:34:31.836Z,340.80
2022-10-23T03:37:19.780Z,342.20
2022-10-23T03:40:09.053Z,334.75
2022-10-23T03:42:56.950Z,326.73
2022-10-23T03:45:46.286Z,341.60
2022-10-23T03:48:38.082Z,346.73
2022-10-23T03:51:26.642Z,336.40
2022-10-23T03:54:14.521Z,326.95
2022-10-23T03:57:02.786Z,349.20
2022-10-23T03:59:50.844Z,344.25
2022-10-23T04:02:40.626Z,336.08
2022-10-23T04:05:28.828Z,335.15
2022-10-23T04:08:20.370Z,321.60
2022-10-23T04:11:10.882Z,322.50
2022-10-23T04:14:06.067Z,330.52
2022-10-23T04:16:54.340Z,335.70
2022-10-23T04:19:43.561Z,333.00
2022-10-23T04:22:31.589Z,327.05
2022-10-23T04:25:19.488Z,310.48
2022-10-23T04:28:07.525Z,335.88
2022-10-23T04:30:59.039Z,329.63
2022-10-23T04:33:47.003Z,303.27
2022-10-23T04:36:49.875Z,307.95
2022-10-23T04:39:38.342Z,311.33
2022-10-23T04:45:15.120Z,320.08
2022-10-23T04:48:03.651Z,302.17
2022-10-23T04:51:06.473Z,326.63
2022-10-23T04:54:14.418Z,299.60
2022-10-23T04:57:18.524Z,317.27
2022-10-23T05:00:16.739Z,302.75
2022-10-23T05:03:15.139Z,320.60
2022-10-23T05:06:03.466Z,317.10
2022-10-23T05:09:05.313Z,295.75
2022-10-23T05:12:05.243Z,299.27
2022-10-23T05:14:53.209Z,336.65
2022-10-23T05:17:45.000Z,317.25
2022-10-23T05:20:37.815Z,320.30
2022-10-23T05:23:27.529Z,313.05
2022-10-23T05:26:19.955Z,304.70
2022-10-23T05:29:11.313Z,314.42
2022-10-23T05:32:04.164Z,312.35
2022-10-23T05:34:52.874Z,322.17
2022-10-23T05:37:44.575Z,319.48
2022-10-23T05:43:36.963Z,329.98
2022-10-23T05:46:52.259Z,307.30
2022-10-23T05:50:05.927Z,318.08
2022-10-23T05:53:12.790Z,327.10
2022-10-23T05:56:25.457Z,306.48
2022-10-23T05:59:27.393Z,313.80
2022-10-23T06:02:23.264Z,319.10
2022-10-23T06:04:56.705Z,322.17
2022-10-23T06:07:45.316Z,325.45
2022-10-23T06:10:13.956Z,357.30
2022-10-23T06:12:45.635Z,325.20
2022-10-23T06:15:16.849Z,352.63
2022-10-23T06:18:03.153Z,341.65
2022-10-23T06:20:37.081Z,344.70
2022-10-23T06:23:12.696Z,328.20
2022-10-23T06:25:58.881Z,336.48
2022-10-23T06:28:34.971Z,333.85
2022-10-23T06:31:05.975Z,349.02
2022-10-23T06:33:35.369Z,355.30
2022-10-23T06:36:06.193Z,334.80
2022-10-23T06:38:36.770Z,361.90
2022-10-23T06:41:05.674Z,342.25
2022-10-23T06:43:37.364Z,352.80
2022-10-23T06:46:29.733Z,347.73
2022-10-23T06:49:17.526Z,339.08
2022-10-23T06:51:48.552Z,359.38
2022-10-23T06:54:18.130Z,347.27
2022-10-23T06:56:52.040Z,360.98
2022-10-23T06:59:23.744Z,336.35
2022-10-23T07:04:27.501Z,346.10
2022-10-23T07:06:56.594Z,359.40
2022-10-23T07:09:30.090Z,363.05
2022-10-23T07:11:57.639Z,345.52
2022-10-23T07:14:33.723Z,350.83
2022-10-23T07:17:03.880Z,333.35
2022-10-23T07:19:32.893Z,368.85
2022-10-23T07:22:15.836Z,344.92
2022-10-23T07:24:48.338Z,346.30
2022-10-23T07:27:27.258Z,350.10
2022-10-23T07:29:57.581Z,353.00
2022-10-23T07:32:28.540Z,368.02
2022-10-23T07:35:16.497Z,346.17
2022-10-23T07:37:56.045Z,383.75
2022-10-23T07:40:25.298Z,368.17
2022-10-23T07:42:57.011Z,380.63
2022-10-23T07:45:24.925Z,395.60
2022-10-23T07:47:53.413Z,356.55
2022-10-23T07:50:25.960Z,381.85
2022-10-23T07:52:53.624Z,378.85
2022-10-23T07:55:24.762Z,373.88
2022-10-23T07:57:59.444Z,368.65
2022-10-23T08:00:39.506Z,387.27
2022-10-23T08:03:14.410Z,375.52
2022-10-23T08:05:43.676Z,392.35
2022-10-23T08:08:11.287Z,366.65
2022-10-23T08:10:41.759Z,386.17
2022-10-23T08:13:14.128Z,367.55
2022-10-23T08:16:04.429Z,376.05
2022-10-23T08:19:09.157Z,386.73
2022-10-23T08:21:41.133Z,394.20
2022-10-23T08:24:13.847Z,423.40
2022-10-23T08:26:43.512Z,438.38
2022-10-23T08:29:12.520Z,436.38
2022-10-23T08:31:40.873Z,413.02
2022-10-23T08:34:21.283Z,411.17
2022-10-23T08:36:52.283Z,430.05
2022-10-23T08:39:19.939Z,440.60
2022-10-23T08:42:21.309Z,429.38
2022-10-23T08:44:58.140Z,452.05
2022-10-23T08:47:32.053Z,431.48
2022-10-23T08:53:06.065Z,456.48
2022-10-23T08:55:36.847Z,443.10
2022-10-23T08:58:10.810Z,444.88
2022-10-23T09:00:38.543Z,444.23
2022-10-23T09:03:06.485Z,441.63
2022-10-23T09:05:42.275Z,472.50
2022-10-23T09:08:25.423Z,441.17
2022-10-23T09:11:02.873Z,448.58
2022-10-23T09:13:51.771Z,454.17
2022-10-23T09:16:30.586Z,464.08
2022-10-23T09:18:58.768Z,470.05
2022-10-23T09:21:28.311Z,469.17
2022-10-23T09:23:57.446Z,502.02
2022-10-23T09:26:25.088Z,477.15
2022-10-23T09:28:55.315Z,484.83
2022-10-23T09:31:23.063Z,488.30
2022-10-23T09:33:58.345Z,478.63
2022-10-23T09:36:29.088Z,494.38
2022-10-23T09:38:59.802Z,503.15
2022-10-23T09:41:30.555Z,496.02
2022-10-23T09:44:03.275Z,468.20
2022-10-23T09:46:39.206Z,508.92
2022-10-23T09:49:07.827Z,493.10
2022-10-23T09:51:35.657Z,501.17
2022-10-23T09:54:04.856Z,507.73
2022-10-23T09:56:35.414Z,530.20
2022-10-23T09:59:06.475Z,501.88
2022-10-23T10:01:36.908Z,504.80
2022-10-23T10:04:39.553Z,507.30
2022-10-23T10:07:19.413Z,500.40
2022-10-23T10:09:49.260Z,523.42
2022-10-23T10:12:31.988Z,531.78
2022-10-23T10:15:07.084Z,510.73
2022-10-23T10:17:40.507Z,535.17
2022-10-23T10:20:24.466Z,532.28
2022-10-23T10:22:56.858Z,529.88
2022-10-23T10:25:33.557Z,523.28
2022-10-23T10:28:18.806Z,523.40
2022-10-23T10:30:55.356Z,518.00
2022-10-23T10:33:29.678Z,522.72
2022-10-23T10:36:03.735Z,524.10
2022-10-23T10:38:49.783Z,526.55
2022-10-23T10:41:38.401Z,536.85
2022-10-23T10:44:25.278Z,531.80
2022-10-23T10:46:59.260Z,515.33
2022-10-23T10:49:39.101Z,527.40
2022-10-23T10:52:26.519Z,551.90
2022-10-23T10:55:03.627Z,510.60
2022-10-23T10:57:37.737Z,510.45
2022-10-23T11:00:14.234Z,512.65
2022-10-23T11:02:46.828Z,531.70
2022-10-23T11:05:22.879Z,534.60
2022-10-23T11:07:56.286Z,539.53
2022-10-23T11:10:24.173Z,513.40
2022-10-23T11:12:53.371Z,523.75
2022-10-23T11:15:25.604Z,524.67
2022-10-23T11:17:57.555Z,530.97
2022-10-23T11:20:45.947Z,515.47
2022-10-23T11:23:58.648Z,531.85
2022-10-23T11:26:41.933Z,534.20
2022-10-23T11:29:41.460Z,506.42
2022-10-23T11:32:27.515Z,501.10
2022-10-23T11:35:15.564Z,519.05
2022-10-23T11:37:43.766Z,495.17
2022-10-23T11:40:23.987Z,501.17
2022-10-23T11:42:52.158Z,485.17
2022-10-23T11:45:34.171Z,509.23
2022-10-23T11:48:03.688Z,472.35
2022-10-23T11:50:33.907Z,512.58
2022-10-23T11:53:15.984Z,484.73
2022-10-23T11:56:01.259Z,454.38
2022-10-23T11:58:41.334Z,475.02
2022-10-23T12:01:25.780Z,469.30
2022-10-23T12:03:56.569Z,440.98
2022-10-23T12:06:29.062Z,436.92
2022-10-23T12:09:00.979Z,476.58
2022-10-23T12:11:41.594Z,454.52
2022-10-23T12:14:28.574Z,465.77
2022-10-23T12:16:57.867Z,439.55
2022-10-23T12:19:28.054Z,453.27
2022-10-23T12:21:59.104Z,442.02
2022-10-23T12:24:39.883Z,476.60
2022-10-23T12:27:17.847Z,465.33
2022-10-23T12:30:04.366Z,448.85
2022-10-23T12:32:47.147Z,451.88
2022-10-23T12:36:05.870Z,456.02
2022-10-23T12:38:36.316Z,439.88
2022-10-23T12:41:12.016Z,445.75
2022-10-23T12:43:41.224Z,435.85
2022-10-23T12:46:26.906Z,448.42
2022-10-23T12:48:57.890Z,444.80
2022-10-23T12:51:27.777Z,466.48
2022-10-23T12:53:55.828Z,450.33
2022-10-23T12:56:23.406Z,475.80
2022-10-23T12:58:54.524Z,454.05
2022-10-23T13:01:28.143Z,471.33
2022-10-23T13:04:12.922Z,464.98
2022-10-23T13:06:41.315Z,456.58
2022-10-23T13:09:19.686Z,456.17
2022-10-23T13:11:59.755Z,448.65
2022-10-23T13:14:32.894Z,472.73
2022-10-23T13:17:02.030Z,459.30
2022-10-23T13:19:31.145Z,472.95
2022-10-23T13:21:59.651Z,476.17
2022-10-23T13:24:29.417Z,454.05
2022-10-23T13:26:58.151Z,484.70
2022-10-23T13:29:29.713Z,457.27
2022-10-23T13:31:57.937Z,467.55
2022-10-23T13:34:28.170Z,481.27
2022-10-23T13:37:04.131Z,459.00
2022-10-23T13:39:33.165Z,457.30
2022-10-23T13:42:13.404Z,450.80
2022-10-23T13:44:41.027Z,459.60
2022-10-23T13:47:13.267Z,451.02
2022-10-23T13:49:40.908Z,450.23
2022-10-23T13:52:13.173Z,448.13
2022-10-23T13:54:40.978Z,454.52
2022-10-23T13:57:14.032Z,447.23
2022-10-23T13:59:41.960Z,468.10
2022-10-23T14:02:18.772Z,484.92
2022-10-23T14:04:47.167Z,496.63
2022-10-23T14:07:16.501Z,474.20
2022-10-23T14:09:44.281Z,478.65
2022-10-23T14:12:13.478Z,501.27
2022-10-23T14:14:41.157Z,481.13
2022-10-23T14:17:08.877Z,469.50
2022-10-23T14:22:05.030Z,459.15
2022-10-23T14:24:34.027Z,455.77
2022-10-23T14:27:01.637Z,453.42
2022-10-23T14:29:29.409Z,477.88
2022-10-23T14:31:57.003Z,446.48
2022-10-23T14:34:24.615Z,457.13
2022-10-23T14:37:07.407Z,446.13
2022-10-23T14:39:37.506Z,432.98
2022-10-23T14:42:05.386Z,437.52
2022-10-23T14:44:33.042Z,457.05
2022-10-23T14:47:00.790Z,450.58
2022-10-23T14:49:28.413Z,434.98
2022-10-23T14:51:56.055Z,435.55
2022-10-23T14:54:23.723Z,435.55
2022-10-23T14:56:52.645Z,437.92
2022-10-23T14:59:20.287Z,431.85
2022-10-23T15:01:48.628Z,445.85
2022-10-23T15:04:16.725Z,460.67
2022-10-23T15:06:44.992Z,443.73
2022-10-23T15:09:12.646Z,462.77
2022-10-23T15:11:40.704Z,446.13
2022-10-23T15:14:09.631Z,450.48
2022-10-23T15:16:41.373Z,473.70
2022-10-23T15:19:13.527Z,461.85
2022-10-23T15:21:45.126Z,444.52
2022-10-23T15:24:12.780Z,454.83
2022-10-23T15:26:42.922Z,441.67
2022-10-23T15:29:12.559Z,431.13
2022-10-23T15:31:45.741Z,438.60
2022-10-23T15:34:15.253Z,452.42
2022-10-23T15:36:44.744Z,447.70
2022-10-23T15:39:13.732Z,455.25
2022-10-23T15:41:43.179Z,472.02
2022-10-23T15:44:14.541Z,465.23
2022-10-23T15:46:42.358Z,425.17
2022-10-23T15:49:10.390Z,456.17
2022-10-23T15:51:39.447Z,453.73
2022-10-23T15:54:08.071Z,440.23
2022-10-23T15:56:36.404Z,451.55
2022-10-23T15:59:04.385Z,462.42
2022-10-23T16:01:33.487Z,442.92
2022-10-23T16:04:01.367Z,464.02
2022-10-23T16:06:28.976Z,442.55
2022-10-23T16:08:56.602Z,447.02
2022-10-23T16:11:26.812Z,452.15
2022-10-23T16:13:55.776Z,438.52
2022-10-23T16:16:23.518Z,454.65
2022-10-23T16:18:52.703Z,464.40
2022-10-23T16:21:22.941Z,460.30
2022-10-23T16:23:51.578Z,463.38
2022-10-23T16:26:20.488Z,463.85
2022-10-23T16:28:49.861Z,430.13
2022-10-23T16:31:20.515Z,451.40
2022-10-23T16:33:48.978Z,455.38
2022-10-23T16:36:19.227Z,468.45
2022-10-23T16:39:10.528Z,442.80
2022-10-23T16:41:57.001Z,450.17
2022-10-23T16:44:29.199Z,486.58
2022-10-23T16:46:58.906Z,435.95
2022-10-23T16:49:26.655Z,455.25
2022-10-23T16:51:55.659Z,433.05
2022-10-23T16:54:23.310Z,458.23
2022-10-23T16:56:51.101Z,454.73
2022-10-23T16:59:18.748Z,442.98
2022-10-23T17:01:46.494Z,466.60
2022-10-23T17:04:14.163Z,462.65
2022-10-23T17:06:42.093Z,448.52
2022-10-23T17:09:11.029Z,434.13
2022-10-23T17:11:40.663Z,441.65
2022-10-23T17:14:12.175Z,438.67
2022-10-23T17:16:44.337Z,451.90
2022-10-23T17:19:20.518Z,450.98
2022-10-23T17:21:55.750Z,442.17
2022-10-23T17:24:24.935Z,435.20
2022-10-23T17:26:52.918Z,447.98
2022-10-23T17:29:21.858Z,464.20
2022-10-23T17:31:51.498Z,437.98
2022-10-23T17:34:21.801Z,473.92
2022-10-23T17:36:52.245Z,456.67
2022-10-23T17:39:23.230Z,451.35
2022-10-23T17:41:52.570Z,473.35
2022-10-23T17:44:20.248Z,464.40
2022-10-23T17:46:52.136Z,458.42
2022-10-23T17:49:20.257Z,461.13
2022-10-23T17:51:51.500Z,461.35
2022-10-23T17:54:19.476Z,479.38
2022-10-23T17:56:47.113Z,524.25
2022-10-23T17:59:19.005Z,554.03
2022-10-23T18:01:48.125Z,546.75
2022-10-23T18:04:17.624Z,543.50
2022-10-23T18:06:48.029Z,526.88
2022-10-23T18:09:16.032Z,500.88
2022-10-23T18:11:48.176Z,479.00
2022-10-23T18:14:19.334Z,482.33
2022-10-23T18:16:47.168Z,485.35
2022-10-23T18:19:15.458Z,500.27
2022-10-23T18:21:43.034Z,486.63
2022-10-23T18:24:10.814Z,472.80
2022-10-23T18:26:40.835Z,466.02
2022-10-23T18:29:10.056Z,485.60
2022-10-23T18:31:39.875Z,455.20
2022-10-23T18:34:16.771Z,481.52
2022-10-23T18:36:44.441Z,442.30
2022-10-23T18:39:14.326Z,467.52
2022-10-23T18:41:45.927Z,459.23
2022-10-23T18:44:17.255Z,468.00
2022-10-23T18:46:46.681Z,460.85
2022-10-23T18:49:14.939Z,490.17
2022-10-23T18:51:42.713Z,454.52
2022-10-23T18:54:13.529Z,446.23
2022-10-23T18:56:41.283Z,478.67
2022-10-23T18:59:12.627Z,471.13
2022-10-23T19:01:41.120Z,470.10
2022-10-23T19:04:15.658Z,458.58
2022-10-23T19:06:43.713Z,457.52
2022-10-23T19:09:13.755Z,453.33
2022-10-23T19:11:41.910Z,488.88
2022-10-23T19:14:09.940Z,479.02
2022-10-23T19:16:42.313Z,477.38
2022-10-23T19:19:17.111Z,478.52
2022-10-23T19:21:45.236Z,447.70
2022-10-23T19:24:17.114Z,478.23
2022-10-23T19:26:45.283Z,468.98
2022-10-23T19:29:16.467Z,472.17
2022-10-23T19:31:48.796Z,455.60
2022-10-23T19:34:19.952Z,451.92
2022-10-23T19:36:47.918Z,507.83
2022-10-23T19:39:15.629Z,484.25
2022-10-23T19:41:43.271Z,479.05
2022-10-23T19:44:10.860Z,460.92
2022-10-23T19:46:39.510Z,497.58
2022-10-23T19:49:08.698Z,462.73
2022-10-23T19:51:38.087Z,488.63
2022-10-23T19:54:06.456Z,474.58
2022-10-23T19:56:34.176Z,481.63
2022-10-23T19:59:01.792Z,465.55
2022-10-23T20:01:29.555Z,466.75
2022-10-23T20:04:15.942Z,488.67
2022-10-23T20:07:05.169Z,470.10
2022-10-23T20:09:53.061Z,479.73
2022-10-23T20:12:44.453Z,428.88
2022-10-23T20:15:39.600Z,464.38
2022-10-23T20:18:27.727Z,463.48
2022-10-23T20:21:15.923Z,456.65
2022-10-23T20:24:05.373Z,451.60
2022-10-23T20:26:55.760Z,457.42
2022-10-23T20:29:43.867Z,450.23
2022-10-23T20:32:31.751Z,437.70
2022-10-23T20:35:19.651Z,437.23
2022-10-23T20:38:08.112Z,450.98
2022-10-23T20:41:00.217Z,436.25
2022-10-23T20:43:48.102Z,433.25
2022-10-23T20:46:36.180Z,463.90
2022-10-23T20:49:24.478Z,441.08
2022-10-23T20:52:12.357Z,453.95
2022-10-23T20:55:00.257Z,451.80
2022-10-23T20:57:49.441Z,454.52
2022-10-23T21:00:37.291Z,430.33
2022-10-23T21:03:25.155Z,446.27
2022-10-23T21:06:15.247Z,430.08
2022-10-23T21:09:05.845Z,426.65
2022-10-23T21:11:53.743Z,446.15
2022-10-23T21:14:42.933Z,440.95
2022-10-23T21:17:35.465Z,440.33
2022-10-23T21:20:23.860Z,467.13
2022-10-23T21:23:11.838Z,453.90
2022-10-23T21:26:02.285Z,467.38
2022-10-23T21:29:01.153Z,449.70
2022-10-23T21:32:03.879Z,456.75
2022-10-23T21:34:51.759Z,443.85
2022-10-23T21:37:39.667Z,443.48
2022-10-23T21:40:27.546Z,444.63
2022-10-23T21:43:15.821Z,480.15
2022-10-23T21:46:05.426Z,471.63
2022-10-23T21:48:54.879Z,456.15
2022-10-23T21:51:42.751Z,454.40
2022-10-23T21:54:30.621Z,473.95
2022-10-23T21:57:18.627Z,471.30
2022-10-23T22:00:08.846Z,448.95
2022-10-23T22:03:00.537Z,459.08
2022-10-23T22:05:49.734Z,500.02
2022-10-23T22:08:37.624Z,484.50
2022-10-23T22:11:27.150Z,494.08
2022-10-23T22:14:15.006Z,473.20
2022-10-23T22:17:02.927Z,460.17
2022-10-23T22:19:50.791Z,463.27
2022-10-23T22:22:39.997Z,460.17
2022-10-23T22:25:27.864Z,454.48
2022-10-23T22:28:15.738Z,429.83
2022-10-23T22:31:03.603Z,474.02
2022-10-23T22:33:52.140Z,454.10
2022-10-23T22:36:40.500Z,426.80
2022-10-23T22:39:29.932Z,473.20
2022-10-23T22:42:17.784Z,434.80
2022-10-23T22:45:06.503Z,430.30
2022-10-23T22:47:54.376Z,434.52
2022-10-23T22:50:42.220Z,417.92
2022-10-23T22:53:30.176Z,446.52
2022-10-23T22:56:21.866Z,447.90
2022-10-23T22:59:09.769Z,434.05
2022-10-23T23:01:57.654Z,425.88
2022-10-23T23:04:45.521Z,423.63
2022-10-23T23:07:33.383Z,424.08
2022-10-23T23:10:21.276Z,434.35
2022-10-23T23:13:10.486Z,436.25
2022-10-23T23:15:58.513Z,453.42
2022-10-23T23:18:46.427Z,442.98
2022-10-23T23:21:34.469Z,430.33
2022-10-23T23:24:22.383Z,432.73
2022-10-23T23:27:10.268Z,457.65
2022-10-23T23:29:59.496Z,479.00
2022-10-23T23:32:48.544Z,485.65
2022-10-23T23:35:40.694Z,503.77
2022-10-23T23:38:28.683Z,498.88
2022-10-23T23:41:18.873Z,517.28
2022-10-23T23:44:08.271Z,480.13
2022-10-23T23:46:57.709Z,515.63
2022-10-23T23:49:45.564Z,543.13
2022-10-23T23:52:33.452Z,560.22
2022-10-23T23:55:21.370Z,550.85
2022-10-23T23:58:09.319Z,535.38
